Time;durP1;ratioP1;P1;durP2;ratioP2;P2;SDS_P1;SDS_P2;PMS_P1;PMS_P2;Temp;Humidity;BMP_temperature;BMP_pressure;BME280_temperature;BME280_humidity;BME280_pressure;Samples;Min_cycle;Max_cycle;Signal;HPM_P1;HPM_P2
2023/11/06 16:47:07;;;;;;;0.30;0.30;;;;;;;;;;7396576;19;20148;-89
2023/11/06 16:49:34;;;;;;;0.20;0.20;;;;;;;;;;7386475;19;20160;-87
2023/11/06 16:52:00;;;;;;;0.30;0.30;;;;;;;;;;7393300;19;20145;-86
2023/11/06 16:54:27;;;;;;;0.30;0.30;;;;;;;;;;7396449;19;20239;-87
2023/11/06 16:56:57;;;;;;;0.30;0.30;;;;;;;;;;7395597;19;20144;-87
2023/11/06 16:59:25;;;;;;;0.30;0.30;;;;;;;;;;7391267;19;20478;-86
2023/11/06 17:01:54;;;;;;;0.30;0.30;;;;;;;;;;7396506;19;20522;-85
2023/11/06 17:04:22;;;;;;;0.20;0.20;;;;;;;;;;7394777;19;20625;-85
2023/11/06 17:06:49;;;;;;;0.20;0.20;;;;;;;;;;7398959;19;20647;-84
2023/11/06 17:59:01;;;;;;;0.30;0.30;;;;;;;;;;7395645;19;20144;-93
2023/11/06 18:01:28;;;;;;;0.30;0.30;;;;;;;;;;7420793;19;20140;-91
2023/11/06 18:03:58;;;;;;;0.30;0.30;;;;;;;;;;7400448;19;20157;-91
2023/11/06 18:06:27;;;;;;;0.30;0.30;;;;;;;;;;7392277;19;20125;-93
2023/11/06 18:08:53;;;;;;;0.20;0.20;;;;;;;;;;7390131;19;21369;-91
2023/11/06 18:11:23;;;;;;;0.20;0.20;;;;;;;;;;7395826;19;20158;-93
2023/11/06 18:13:50;;;;;;;0.30;0.30;;;;;;;;;;7394099;19;20171;-92
2023/11/06 18:16:28;;;;;;;0.30;0.30;;;;;;;;;;7405034;19;20240;-92
2023/11/06 18:18:59;;;;;;;0.30;0.30;;;;;;;;;;7403455;19;20141;-90
2023/11/06 18:21:31;;;;;;;0.30;0.30;;;;;;;;;;7403410;19;20144;-94
2023/11/06 18:24:01;;;;;;;0.30;0.30;;;;;;;;;;7404891;19;20200;-93
2023/11/06 18:26:32;;;;;;;0.30;0.30;;;;;;;;;;7404151;19;20212;-93
2023/11/06 18:28:59;;;;;;;0.30;0.30;;;;;;;;;;7399680;19;20149;-92
2023/11/06 18:31:26;;;;;;;0.30;0.30;;;;;;;;;;7403477;19;20137;-93
2023/11/06 18:33:54;;;;;;;0.30;0.30;;;;;;;;;;7403440;19;20153;-93
2023/11/06 18:36:26;;;;;;;0.20;0.20;;;;;;;;;;7402829;19;20159;-92
2023/11/06 18:38:54;;;;;;;0.30;0.30;;;;;;;;;;7398759;19;20141;-88
2023/11/06 18:41:22;;;;;;;0.20;0.20;;;;;;;;;;7393466;19;20133;-91
2023/11/06 18:43:48;;;;;;;0.30;0.30;;;;;;;;;;7396857;19;20866;-90
2023/11/06 18:46:16;;;;;;;0.30;0.30;;;;;;;;;;7397085;19;20133;-89
2023/11/06 18:48:42;;;;;;;0.30;0.30;;;;;;;;;;7396012;19;20141;-89
2023/11/06 18:51:09;;;;;;;0.30;0.30;;;;;;;;;;7400027;19;20139;-89
2023/11/06 18:53:36;;;;;;;0.30;0.30;;;;;;;;;;7393309;19;20169;-89
2023/11/06 18:56:05;;;;;;;0.30;0.30;;;;;;;;;;7398448;19;20133;-87
2023/11/06 18:58:40;;;;;;;0.30;0.30;;;;;;;;;;7395755;19;20197;-89
2023/11/06 19:01:06;;;;;;;0.30;0.30;;;;;;;;;;7395069;19;20697;-90
2023/11/06 19:03:33;;;;;;;0.47;0.47;;;;;;;;;;7396269;19;20172;-90
2023/11/06 19:06:00;;;;;;;0.20;0.20;;;;;;;;;;7395533;19;20653;-89
2023/11/06 19:08:28;;;;;;;0.30;0.30;;;;;;;;;;7395667;19;20192;-90
2023/11/06 19:10:56;;;;;;;0.30;0.30;;;;;;;;;;7396499;19;20141;-89
2023/11/06 19:13:23;;;;;;;0.30;0.30;;;;;;;;;;7399348;19;20129;-90
2023/11/06 19:15:51;;;;;;;0.20;0.20;;;;;;;;;;7400882;19;20129;-89
2023/11/06 19:18:17;;;;;;;0.20;0.20;;;;;;;;;;7395155;19;20147;-90
2023/11/06 19:20:44;;;;;;;0.20;0.20;;;;;;;;;;7395469;19;20165;-90
2023/11/06 19:23:31;;;;;;;0.60;0.60;;;;;;;;;;7395373;19;20158;-89
2023/11/06 19:25:58;;;;;;;0.30;0.30;;;;;;;;;;7395632;19;20141;-90
2023/11/06 19:28:24;;;;;;;0.30;0.30;;;;;;;;;;7393812;19;20129;-90
2023/11/06 19:30:51;;;;;;;0.30;0.30;;;;;;;;;;7398094;19;20144;-90
2023/11/06 19:33:17;;;;;;;0.30;0.30;;;;;;;;;;7393548;19;20282;-90
2023/11/06 19:35:44;;;;;;;0.30;0.30;;;;;;;;;;7394143;19;20141;-89
2023/11/06 19:38:12;;;;;;;0.30;0.30;;;;;;;;;;7394153;19;20167;-90
2023/11/06 19:40:39;;;;;;;0.30;0.30;;;;;;;;;;7394605;19;20152;-90
2023/11/06 19:43:06;;;;;;;0.20;0.20;;;;;;;;;;7397480;19;20155;-90
2023/11/06 19:45:35;;;;;;;0.20;0.20;;;;;;;;;;7391311;19;20166;-91
2023/11/06 19:48:02;;;;;;;0.30;0.30;;;;;;;;;;7393850;19;20510;-91
2023/11/06 19:50:32;;;;;;;0.30;0.30;;;;;;;;;;7387282;19;20136;-90
2023/11/06 19:52:58;;;;;;;0.27;0.27;;;;;;;;;;7393260;19;20129;-90
2023/11/06 19:55:25;;;;;;;0.20;0.20;;;;;;;;;;7394919;19;20149;-91
2023/11/06 19:57:54;;;;;;;0.53;0.53;;;;;;;;;;7396996;19;20141;-90
2023/11/06 20:00:39;;;;;;;0.30;0.30;;;;;;;;;;7396839;19;20672;-90
2023/11/06 20:03:14;;;;;;;0.40;0.40;;;;;;;;;;7394024;19;20601;-91
2023/11/06 20:05:42;;;;;;;0.30;0.30;;;;;;;;;;7394159;19;20133;-89
2023/11/06 20:08:09;;;;;;;0.30;0.30;;;;;;;;;;7388825;19;20464;-91
2023/11/06 20:10:39;;;;;;;0.30;0.30;;;;;;;;;;7384849;19;20132;-89
2023/11/06 20:13:09;;;;;;;0.30;0.30;;;;;;;;;;7381121;19;20497;-88
2023/11/06 20:15:36;;;;;;;0.20;0.20;;;;;;;;;;7377661;19;20195;-89
2023/11/06 20:18:03;;;;;;;0.30;0.30;;;;;;;;;;7384072;19;20193;-89
2023/11/06 20:20:37;;;;;;;0.20;0.20;;;;;;;;;;7386389;19;20151;-89
2023/11/06 20:23:08;;;;;;;0.30;0.30;;;;;;;;;;7388300;19;20143;-90
2023/11/06 20:25:35;;;;;;;0.30;0.30;;;;;;;;;;7389475;19;20172;-90
2023/11/06 20:28:01;;;;;;;0.30;0.30;;;;;;;;;;7389732;19;20617;-89
2023/11/06 20:30:32;;;;;;;0.30;0.30;;;;;;;;;;7388617;19;20981;-88
2023/11/06 20:33:02;;;;;;;0.30;0.30;;;;;;;;;;7385492;19;20136;-90
2023/11/06 20:35:41;;;;;;;0.30;0.30;;;;;;;;;;7386776;19;20180;-91
2023/11/06 20:38:16;;;;;;;0.30;0.30;;;;;;;;;;7387500;19;20157;-90
2023/11/06 20:40:49;;;;;;;0.30;0.30;;;;;;;;;;7389329;19;20199;-90
2023/11/06 20:43:16;;;;;;;0.30;0.30;;;;;;;;;;7391079;19;20582;-91
2023/11/06 20:45:45;;;;;;;0.30;0.30;;;;;;;;;;7387197;19;20208;-90
2023/11/06 20:48:12;;;;;;;0.30;0.30;;;;;;;;;;7387066;19;20137;-92
2023/11/06 20:50:39;;;;;;;0.30;0.30;;;;;;;;;;7390644;19;20236;-90
2023/11/06 20:53:11;;;;;;;0.30;0.30;;;;;;;;;;7393889;19;20137;-90
2023/11/06 21:00:01;;;;;;;0.30;0.30;;;;;;;;;;7395446;19;20145;-91
2023/11/06 21:02:33;;;;;;;0.30;0.30;;;;;;;;;;7392728;19;20145;-89
2023/11/06 21:05:01;;;;;;;0.30;0.30;;;;;;;;;;7392369;19;20169;-89
2023/11/06 21:07:28;;;;;;;0.30;0.30;;;;;;;;;;7392165;19;20140;-90
2023/11/06 21:09:54;;;;;;;0.23;0.23;;;;;;;;;;7392114;19;20133;-89
2023/11/06 21:12:21;;;;;;;0.40;0.40;;;;;;;;;;7394558;19;20137;-89
2023/11/06 21:14:48;;;;;;;0.30;0.30;;;;;;;;;;7392644;19;20172;-90
2023/11/06 21:17:15;;;;;;;0.30;0.30;;;;;;;;;;7392336;19;20143;-88
2023/11/06 21:19:45;;;;;;;0.30;0.30;;;;;;;;;;7393342;19;20145;-90
2023/11/06 21:22:25;;;;;;;0.30;0.30;;;;;;;;;;7393398;19;20157;-89
2023/11/06 21:24:54;;;;;;;0.30;0.30;;;;;;;;;;7391411;19;20184;-90
2023/11/06 21:27:22;;;;;;;0.30;0.30;;;;;;;;;;7391729;19;20145;-89
2023/11/06 21:29:49;;;;;;;0.30;0.30;;;;;;;;;;7387849;19;20145;-89
2023/11/06 21:32:16;;;;;;;0.30;0.30;;;;;;;;;;7389453;19;20137;-89
2023/11/06 21:34:43;;;;;;;0.30;0.30;;;;;;;;;;7390533;19;20224;-89
2023/11/06 21:37:12;;;;;;;0.27;0.27;;;;;;;;;;7390371;19;20141;-89
2023/11/06 21:39:39;;;;;;;0.30;0.30;;;;;;;;;;7388460;19;20141;-90
2023/11/06 21:42:07;;;;;;;0.30;0.30;;;;;;;;;;7389914;19;20605;-90
2023/11/06 21:44:33;;;;;;;0.30;0.30;;;;;;;;;;7390580;19;20189;-90
2023/11/06 21:47:00;;;;;;;0.30;0.30;;;;;;;;;;7392592;19;20144;-89
2023/11/06 21:49:27;;;;;;;0.30;0.30;;;;;;;;;;7391972;19;20139;-91
2023/11/06 21:52:22;;;;;;;0.30;0.30;;;;;;;;;;7395672;19;20136;-90
2023/11/06 21:54:50;;;;;;;0.47;0.47;;;;;;;;;;7398670;19;20507;-91
2023/11/06 21:57:21;;;;;;;0.30;0.30;;;;;;;;;;7400326;19;20212;-90
2023/11/06 21:59:48;;;;;;;0.30;0.30;;;;;;;;;;7402157;19;20133;-89
2023/11/06 22:02:15;;;;;;;0.30;0.30;;;;;;;;;;7402335;19;20141;-91
2023/11/06 22:04:43;;;;;;;0.30;0.30;;;;;;;;;;7395993;19;20153;-90
2023/11/06 22:07:10;;;;;;;0.30;0.30;;;;;;;;;;7396475;19;20165;-91
2023/11/06 22:09:37;;;;;;;0.30;0.30;;;;;;;;;;7396846;19;20133;-91
2023/11/06 22:12:04;;;;;;;0.30;0.30;;;;;;;;;;7395873;19;20606;-91
2023/11/06 22:14:33;;;;;;;0.30;0.30;;;;;;;;;;7397702;19;20212;-90
2023/11/06 22:17:00;;;;;;;0.30;0.30;;;;;;;;;;7398259;19;20153;-91
2023/11/06 22:19:27;;;;;;;0.20;0.20;;;;;;;;;;7398613;19;20732;-90
2023/11/06 22:21:55;;;;;;;0.30;0.30;;;;;;;;;;7395643;19;20156;-91
2023/11/06 22:24:22;;;;;;;0.20;0.20;;;;;;;;;;7395832;19;20160;-90
2023/11/06 22:26:48;;;;;;;0.30;0.30;;;;;;;;;;7394924;19;20144;-90
2023/11/06 22:29:16;;;;;;;0.30;0.30;;;;;;;;;;7398003;19;20140;-90
2023/11/06 22:31:43;;;;;;;0.30;0.30;;;;;;;;;;7400589;19;20148;-90
2023/11/06 22:34:10;;;;;;;0.33;0.33;;;;;;;;;;7397645;19;20175;-90
2023/11/06 22:36:39;;;;;;;0.20;0.20;;;;;;;;;;7398018;19;20483;-92
2023/11/06 22:39:09;;;;;;;0.30;0.30;;;;;;;;;;7402048;19;20133;-91
2023/11/06 22:41:37;;;;;;;0.30;0.30;;;;;;;;;;7400855;19;20140;-92
2023/11/06 22:44:09;;;;;;;0.30;0.30;;;;;;;;;;7402722;19;20197;-92
2023/11/06 22:46:39;;;;;;;0.30;0.30;;;;;;;;;;7398805;19;20129;-91
2023/11/06 22:49:07;;;;;;;0.30;0.30;;;;;;;;;;7397685;19;20133;-91
2023/11/06 22:51:34;;;;;;;0.30;0.30;;;;;;;;;;7397720;19;20133;-90
2023/11/06 22:54:02;;;;;;;0.30;0.30;;;;;;;;;;7400701;19;20160;-91
2023/11/06 22:56:29;;;;;;;0.50;0.50;;;;;;;;;;7400120;19;20162;-91
2023/11/06 22:58:55;;;;;;;0.30;0.30;;;;;;;;;;7399039;19;20141;-91
2023/11/06 23:01:22;;;;;;;0.30;0.30;;;;;;;;;;7399589;19;20216;-92
2023/11/06 23:03:57;;;;;;;0.30;0.30;;;;;;;;;;7401899;19;20157;-92
2023/11/06 23:06:24;;;;;;;0.23;0.23;;;;;;;;;;7396533;19;20136;-91
2023/11/06 23:08:51;;;;;;;0.30;0.30;;;;;;;;;;7396474;19;20137;-92
2023/11/06 23:11:17;;;;;;;0.30;0.30;;;;;;;;;;7396988;19;20554;-93
2023/11/06 23:13:44;;;;;;;0.20;0.20;;;;;;;;;;7397418;19;20164;-92
2023/11/06 23:16:12;;;;;;;0.30;0.30;;;;;;;;;;7404144;19;20145;-93
2023/11/06 23:18:40;;;;;;;0.30;0.30;;;;;;;;;;7420018;19;20137;-95
2023/11/06 23:21:06;;;;;;;0.30;0.30;;;;;;;;;;7424257;19;20152;-92
2023/11/06 23:23:33;;;;;;;0.30;0.30;;;;;;;;;;7424830;19;20161;-92
2023/11/06 23:26:00;;;;;;;0.53;0.53;;;;;;;;;;7426786;19;20212;-94
2023/11/06 23:28:27;;;;;;;0.30;0.30;;;;;;;;;;7418222;19;20164;-93
2023/11/06 23:30:54;;;;;;;0.30;0.30;;;;;;;;;;7391952;19;20545;-93
2023/11/06 23:33:21;;;;;;;0.30;0.30;;;;;;;;;;7394473;19;20151;-93
2023/11/06 23:35:48;;;;;;;0.30;0.30;;;;;;;;;;7394626;19;20141;-93
2023/11/06 23:38:15;;;;;;;0.20;0.20;;;;;;;;;;7392351;19;20164;-93
2023/11/06 23:40:42;;;;;;;1.23;1.13;;;;;;;;;;7393328;19;20601;-92
2023/11/06 23:43:09;;;;;;;0.20;0.20;;;;;;;;;;7395274;19;20651;-92
2023/11/06 23:45:36;;;;;;;0.80;0.80;;;;;;;;;;7395776;19;20164;-92
2023/11/06 23:48:03;;;;;;;0.30;0.30;;;;;;;;;;7394131;19;20156;-93
2023/11/06 23:50:30;;;;;;;0.20;0.20;;;;;;;;;;7395993;19;20140;-91
2023/11/06 23:52:57;;;;;;;0.30;0.30;;;;;;;;;;7394912;19;20141;-91
2023/11/06 23:55:24;;;;;;;0.30;0.30;;;;;;;;;;7395322;19;20172;-94
2023/11/06 23:57:51;;;;;;;0.30;0.30;;;;;;;;;;7396279;19;20158;-92
